1963 49P:HSK3663 (1963123S13163)


On this page: IBTrACS data - Map and Plots - Positions - Intensities - Original source data

Summary

Start May 3
End May 9
Basin SP
LMI 45 kt
Sources jtwc_sh
bom
td9636
neumann
ds824_au
ds824_sh
In WMO? Yes
Previous storm 1963 OLIVE (WP)
Previous in basin 1963 48P (SP)
Concurrent storms 1963 OLIVE (WP)
1963 49P (SP)
1963 50P (SP)
1963 51P (SP)
1963 52P (SP)
Next in basin 1963 50P (SP)
Next storm 1963 50P (SP)

top of page IBTrACS Data: File Access

No storm imagery available

top of page Plots:

Map of storm track will not appear if FTP is down
Time series of cyclone Maximum Sustained Wind will not appear if FTP is down
Time series of cyclone Minimum Central Pressure will not appear if FTP is down

top of page Track Data:Position

jtwc_sh bom td9636 neumann ds824_au ds824_sh
Date Lat Lon Lat Lon Lat Lon Lat Lon Lat Lon Lat Lon
1963-05-03 00:00:00 -13.0 162.7 -13.0 162.8 -13.0 162.7 -13.0 163.1 -13.0 162.8 -13.0 162.7
1963-05-03 06:00:00 -13.0 162.0 -13.1 162.0 -13.0 162.0 -13.0 162.3 -13.1 162.0 -13.0 162.0
1963-05-03 12:00:00 -13.0 161.3 -13.1 161.3 -13.0 161.3 -13.1 161.6 -13.1 161.3 -13.0 161.3
1963-05-03 18:00:00 -13.0 160.6 -13.1 160.7 -13.0 160.6 -13.1 160.9 -13.1 160.7 -13.0 160.6
1963-05-04 00:00:00 -13.0 159.9 -13.1 160.0 -13.0 159.9 -13.1 160.3 -13.1 160.0 -13.0 159.9
1963-05-04 06:00:00 -13.0 159.2 -13.1 159.2 -13.0 159.2 -13.1 159.5 -13.1 159.2 -13.0 159.2
1963-05-04 12:00:00 -13.0 158.5 -13.1 158.4 -13.0 158.5 -13.1 158.7 -13.1 158.4 -13.0 158.5
1963-05-04 18:00:00 -13.1 157.7 -13.1 157.6 -13.1 157.7 -13.1 158.0 -13.1 157.7 -13.1 157.7
1963-05-05 00:00:00 -13.1 156.9 -13.1 156.9 -13.1 156.9 -13.1 157.2 -13.1 156.9 -13.1 156.9
1963-05-05 06:00:00 -13.2 156.1 -13.1 156.0 -13.1 156.1 -13.1 156.3 -13.1 156.1 -13.2 156.1
1963-05-05 12:00:00 -13.2 155.3 -13.2 155.2 -13.2 155.3 -13.2 155.5 -13.2 155.2 -13.2 155.3
1963-05-05 18:00:00 -13.3 154.4 -13.2 154.3 -13.2 154.4 -13.4 154.7 -13.4 154.3 -13.3 154.4
1963-05-06 00:00:00 -13.7 153.6 -13.9 153.6 -13.8 153.6 -13.7 153.9 -14.0 153.6 -13.7 153.6
1963-05-06 06:00:00 -15.1 152.9 -15.4 153.1 -15.1 152.9 -15.3 153.5 -15.4 153.1 -15.1 152.9
1963-05-06 12:00:00 -17.2 152.9 -17.3 152.8 -17.2 152.8 -17.0 153.1 -17.4 152.9 -17.2 152.9
1963-05-06 18:00:00 -19.8 153.5 -19.5 152.9 -19.7 153.4 -19.1 152.9 -19.6 153.0 -19.8 153.5
1963-05-07 00:00:00 -22.1 154.3 -22.2 154.4 -22.2 154.3 -21.8 154.4 -22.1 154.4 -22.1 154.3
1963-05-07 06:00:00 -23.9 155.3 -24.0 155.6 -23.9 155.3 -23.4 155.4 -23.9 155.6 -23.9 155.3
1963-05-07 12:00:00 -25.2 156.1 -25.2 156.4 -25.2 156.1 -25.0 156.5 -25.1 156.4 -25.2 156.1
1963-05-07 18:00:00 -25.7 156.7 -25.8 156.7 -25.7 156.6 -25.7 156.8 -25.8 156.7 -25.7 156.7
1963-05-08 00:00:00 -26.4 156.8 -26.5 156.9 -26.4 156.8 -26.3 157.1 -26.5 156.9 -26.4 156.8
1963-05-08 06:00:00 -27.7 156.6 -27.7 156.8 -27.7 156.6 -27.5 156.9 -27.6 156.8 -27.7 156.6
1963-05-08 12:00:00 -28.9 156.4 -29.0 156.6 -28.9 156.4 -28.8 156.8 -28.9 156.6 -28.9 156.4
1963-05-08 18:00:00 -29.7 156.3 -29.8 156.4 -29.7 156.2 -29.5 156.7 -29.7 156.3
1963-05-09 00:00:00 -30.3 156.4 -30.3 156.2 -30.2 156.6

top of pageTrack Data:Intensity

jtwc_sh bom td9636 neumann ds824_au ds824_sh
Date Wind Pres Wind Pres Wind Pres Wind Pres Wind Pres Wind Pres
1963-05-03 00:00:00 15. 1009. 15. 15. 1009. 15. 1009. 15.
1963-05-03 06:00:00 20. 1009. 20. 15. 1009. 15. 1009. 20.
1963-05-03 12:00:00 20. 1009. 20. 15. 1009. 15. 1009. 20.
1963-05-03 18:00:00 20. 1007. 20. 15. 1008. 15. 1009. 20.
1963-05-04 00:00:00 20. 1007. 20. 15. 1007. 15. 1007. 20.
1963-05-04 06:00:00 20. 1008. 20. 15. 1007. 15. 1007. 20.
1963-05-04 12:00:00 20. 1008. 20. 15. 1008. 15. 1008. 20.
1963-05-04 18:00:00 15. 1008. 15. 15. 1008. 15. 1008. 15.
1963-05-05 00:00:00 15. 1008. 15. 15. 1008. 15. 1008. 15.
1963-05-05 06:00:00 15. 1008. 15. 15. 1008. 15. 1008. 15.
1963-05-05 12:00:00 15. 1008. 15. 15. 1008. 15. 1008. 15.
1963-05-05 18:00:00 10. 1009. 10. 15. 1008. 15. 1008. 10.
1963-05-06 00:00:00 10. 1009. 10. 15. 1009. 15. 1009. 10.
1963-05-06 06:00:00 10. 1009. 10. 15. 1009. 15. 1009. 10.
1963-05-06 12:00:00 10. 1009. 10. 15. 1009. 15. 1009. 10.
1963-05-06 18:00:00 20. 1009. 25. 15. 1009. 15. 1009. 20.
1963-05-07 00:00:00 25. 1009. 25. 15. 1009. 15. 1009. 25.
1963-05-07 06:00:00 20. 1002. 20. 20. 1005. 15. 1009. 20.
1963-05-07 12:00:00 20. 1002. 20. 25. 1002. 25. 1002. 20.
1963-05-07 18:00:00 35. 1000. 45. 30. 1000. 30. 1000. 35.
1963-05-08 00:00:00 45. 1001. 45. 35. 30. 1001. 45.
1963-05-08 06:00:00 40. 1004. 38. 30. 30. 1001. 40.
1963-05-08 12:00:00 35. 1004. 38. 20. 1004. 20. 1004. 35.
1963-05-08 18:00:00 35. 1005. 30. 20. 1004. 35.
1963-05-09 00:00:00 1005. 30. 20. 1005.

top of page Links to source data

Source Source file Format
jtwc_sh bsh491963.txt ATCF
bom IDCKMSTM0S.csv:Line=3770:unnamed CSV file (from Excel file)
td9636 cons_worldwide_trop_cyclone_18710101-19891231-006:Line=6628 TD 9636
neumann tracks.sh:Storm=82:HSK3663:BSH4963:BM326 HURDAT
ds824_au aus_area.dat:344:NOT NAMED HURDAT
ds824_sh s_hem.dat:898:49P HURDAT